createdAt,value
2023-05-05T00:00:18.625Z,10.11
2023-05-05T00:00:51.352Z,10.11
2023-05-05T00:01:24.029Z,10.11
2023-05-05T00:01:56.751Z,10.09
2023-05-05T00:02:29.467Z,10.09
2023-05-05T00:03:02.181Z,10.08
2023-05-05T00:03:34.986Z,10.09
2023-05-05T00:04:07.716Z,10.07
2023-05-05T00:04:40.445Z,10.07
2023-05-05T00:05:13.102Z,10.05
2023-05-05T00:05:45.771Z,10.02
2023-05-05T00:06:18.463Z,10.02
2023-05-05T00:06:51.161Z,10.04
2023-05-05T00:07:23.817Z,10.01
2023-05-05T00:07:56.488Z,10.01
2023-05-05T00:08:29.154Z,10.01
2023-05-05T00:09:01.841Z,9.99
2023-05-05T00:09:34.494Z,9.96
2023-05-05T00:10:07.388Z,9.96
2023-05-05T00:10:33.707Z,9.99
2023-05-05T00:11:06.415Z,9.97
2023-05-05T00:11:39.073Z,9.97
2023-05-05T00:12:11.754Z,9.97
2023-05-05T00:12:44.431Z,9.97
2023-05-05T00:13:17.093Z,9.99
2023-05-05T00:13:49.759Z,10.01
2023-05-05T00:14:20.858Z,10.01
2023-05-05T00:14:53.508Z,9.99
2023-05-05T00:15:26.200Z,9.97
2023-05-05T00:15:58.905Z,9.96
2023-05-05T00:16:31.616Z,9.97
2023-05-05T00:17:04.382Z,9.97
2023-05-05T00:17:37.083Z,9.97
2023-05-05T00:18:09.765Z,9.99
2023-05-05T00:18:42.422Z,10.01
2023-05-05T00:19:15.105Z,9.99
2023-05-05T00:19:47.771Z,10.01
2023-05-05T00:20:20.456Z,10.01
2023-05-05T00:20:53.126Z,10.01
2023-05-05T00:21:25.807Z,10.02
2023-05-05T00:21:58.470Z,10.01
2023-05-05T00:22:31.147Z,10.01
2023-05-05T00:23:03.819Z,9.99
2023-05-05T00:23:36.482Z,9.97
2023-05-05T00:24:09.156Z,9.97
2023-05-05T00:24:41.831Z,9.97
2023-05-05T00:25:14.493Z,9.96
2023-05-05T00:25:47.162Z,9.96
2023-05-05T00:26:19.858Z,9.96
2023-05-05T00:26:52.529Z,9.97
2023-05-05T00:27:25.171Z,9.97
2023-05-05T00:27:57.866Z,9.97
2023-05-05T00:28:30.554Z,9.94
2023-05-05T00:29:03.203Z,9.96
2023-05-05T00:29:35.866Z,9.96
2023-05-05T00:30:08.680Z,9.94
2023-05-05T00:30:41.477Z,9.93
2023-05-05T00:31:14.281Z,9.94
2023-05-05T00:31:46.944Z,9.94
2023-05-05T00:32:19.612Z,9.94
2023-05-05T00:32:52.304Z,9.94
2023-05-05T00:33:25.054Z,9.96
2023-05-05T00:33:57.725Z,9.96
2023-05-05T00:34:30.403Z,9.97
2023-05-05T00:35:03.086Z,9.97
2023-05-05T00:35:35.773Z,9.96
2023-05-05T00:36:08.484Z,9.94
2023-05-05T00:36:41.148Z,9.93
2023-05-05T00:37:13.821Z,9.94
2023-05-05T00:37:46.479Z,9.94
2023-05-05T00:38:19.147Z,9.93
2023-05-05T00:38:51.818Z,9.91
2023-05-05T00:39:24.494Z,9.90
2023-05-05T00:39:57.170Z,9.90
2023-05-05T00:40:29.836Z,9.90
2023-05-05T00:41:02.530Z,9.91
2023-05-05T00:41:35.174Z,9.90
2023-05-05T00:42:07.847Z,9.89
2023-05-05T00:42:40.521Z,9.90
2023-05-05T00:43:13.204Z,9.90
2023-05-05T00:43:45.871Z,9.89
2023-05-05T00:44:18.527Z,9.91
2023-05-05T00:44:51.194Z,9.89
2023-05-05T00:45:23.865Z,9.89
2023-05-05T00:45:56.552Z,9.90
2023-05-05T00:46:29.283Z,9.90
2023-05-05T00:47:01.944Z,9.90
2023-05-05T00:47:34.691Z,9.90
2023-05-05T00:48:07.401Z,9.89
2023-05-05T00:48:40.044Z,9.90
2023-05-05T00:49:12.719Z,9.89
2023-05-05T00:49:45.373Z,9.89
2023-05-05T00:50:18.042Z,9.86
2023-05-05T00:50:50.720Z,9.87
2023-05-05T00:51:23.419Z,9.86
2023-05-05T00:51:56.096Z,9.86
2023-05-05T00:52:28.790Z,9.84
2023-05-05T00:53:01.491Z,9.84
2023-05-05T00:53:34.137Z,9.84
2023-05-05T00:54:06.808Z,9.84
2023-05-05T00:54:39.488Z,9.83
2023-05-05T00:55:12.169Z,9.83
2023-05-05T00:55:44.825Z,9.79
2023-05-05T00:56:17.551Z,9.79
2023-05-05T00:56:50.326Z,9.81
2023-05-05T00:57:22.994Z,9.81
2023-05-05T00:57:55.664Z,9.81
2023-05-05T00:58:28.410Z,9.81
2023-05-05T00:59:01.030Z,9.83
2023-05-05T00:59:33.744Z,9.81
2023-05-05T01:00:06.766Z,9.81
2023-05-05T01:00:33.092Z,9.79
2023-05-05T01:01:05.800Z,9.79
2023-05-05T01:01:38.492Z,9.79
2023-05-05T01:02:11.184Z,9.79
2023-05-05T01:02:43.936Z,9.81
2023-05-05T01:03:16.803Z,9.79
2023-05-05T01:03:49.727Z,9.79
2023-05-05T01:04:22.445Z,9.81
2023-05-05T01:04:55.112Z,9.81
2023-05-05T01:05:27.775Z,9.79
2023-05-05T01:06:00.451Z,9.78
2023-05-05T01:06:33.144Z,9.79
2023-05-05T01:07:05.790Z,9.76
2023-05-05T01:07:38.498Z,9.78
2023-05-05T01:08:11.176Z,9.78
2023-05-05T01:08:43.848Z,9.78
2023-05-05T01:09:16.525Z,9.78
2023-05-05T01:09:52.304Z,9.79
2023-05-05T01:10:21.333Z,9.79
2023-05-05T01:10:47.481Z,9.79
2023-05-05T01:11:20.163Z,9.79
2023-05-05T01:11:52.862Z,9.79
2023-05-05T01:12:25.540Z,9.78
2023-05-05T01:12:58.286Z,9.81
2023-05-05T01:13:30.986Z,9.79
2023-05-05T01:14:03.641Z,9.83
2023-05-05T01:14:36.318Z,9.81
2023-05-05T01:15:08.983Z,9.81
2023-05-05T01:15:41.660Z,9.83
2023-05-05T01:16:14.428Z,9.83
2023-05-05T01:16:47.090Z,9.79
2023-05-05T01:17:19.790Z,9.79
2023-05-05T01:17:52.450Z,9.79
2023-05-05T01:18:25.102Z,9.78
2023-05-05T01:18:57.774Z,9.78
2023-05-05T01:19:30.428Z,9.79
2023-05-05T01:20:03.165Z,9.76
2023-05-05T01:20:35.815Z,9.79
2023-05-05T01:21:08.535Z,9.76
2023-05-05T01:21:41.224Z,9.75
2023-05-05T01:22:13.868Z,9.75
2023-05-05T01:22:46.524Z,9.75
2023-05-05T01:23:19.206Z,9.75
2023-05-05T01:23:51.874Z,9.71
2023-05-05T01:24:24.538Z,9.71
2023-05-05T01:24:57.207Z,9.71
2023-05-05T01:25:29.874Z,9.69
2023-05-05T01:26:02.609Z,9.69
2023-05-05T01:26:35.274Z,9.68
2023-05-05T01:27:07.939Z,9.66
2023-05-05T01:27:40.593Z,9.68
2023-05-05T01:28:13.273Z,9.64
2023-05-05T01:28:45.958Z,9.65
2023-05-05T01:29:18.613Z,9.65
2023-05-05T01:29:51.287Z,9.64
2023-05-05T01:30:23.980Z,9.61
2023-05-05T01:30:56.640Z,9.61
2023-05-05T01:31:29.344Z,9.61
2023-05-05T01:32:02.008Z,9.60
2023-05-05T01:32:34.793Z,9.60
2023-05-05T01:33:07.419Z,9.60
2023-05-05T01:33:40.120Z,9.60
2023-05-05T01:34:12.792Z,9.58
2023-05-05T01:34:45.476Z,9.58
2023-05-05T01:35:18.128Z,9.58
2023-05-05T01:35:50.790Z,9.57
2023-05-05T01:36:23.484Z,9.57
2023-05-05T01:36:56.144Z,9.57
2023-05-05T01:37:28.809Z,9.57
2023-05-05T01:38:01.480Z,9.56
2023-05-05T01:38:34.145Z,9.56
2023-05-05T01:39:06.825Z,9.54
2023-05-05T01:39:39.493Z,9.57
2023-05-05T01:40:12.156Z,9.54
2023-05-05T01:40:44.849Z,9.53
2023-05-05T01:41:17.508Z,9.54
2023-05-05T01:41:50.202Z,9.51
2023-05-05T01:42:22.875Z,9.50
2023-05-05T01:42:55.556Z,9.48
2023-05-05T01:43:28.199Z,9.48
2023-05-05T01:44:00.903Z,9.48
2023-05-05T01:44:33.547Z,9.48
2023-05-05T01:45:06.230Z,9.48
2023-05-05T01:45:38.956Z,9.48
2023-05-05T01:46:11.699Z,9.46
2023-05-05T01:46:44.375Z,9.48
2023-05-05T01:47:17.057Z,9.48
2023-05-05T01:47:49.838Z,9.47
2023-05-05T01:48:22.517Z,9.47
2023-05-05T01:48:55.215Z,9.47
2023-05-05T01:49:27.873Z,9.48
2023-05-05T01:50:00.566Z,9.47
2023-05-05T01:50:33.231Z,9.47
2023-05-05T01:51:05.908Z,9.47
2023-05-05T01:51:38.582Z,9.47
2023-05-05T01:52:11.250Z,9.47
2023-05-05T01:52:43.952Z,9.47
2023-05-05T01:53:16.613Z,9.46
2023-05-05T01:53:49.280Z,9.46
2023-05-05T01:54:21.950Z,9.43
2023-05-05T01:54:54.612Z,9.46
2023-05-05T01:55:27.288Z,9.46
2023-05-05T01:55:59.949Z,9.46
2023-05-05T01:56:32.672Z,9.47
2023-05-05T01:57:05.329Z,9.48
2023-05-05T01:57:37.988Z,9.47
2023-05-05T01:58:10.651Z,9.46
2023-05-05T01:58:43.322Z,9.47
2023-05-05T01:59:16.020Z,9.47
2023-05-05T01:59:48.678Z,9.47
2023-05-05T02:00:21.328Z,9.48
2023-05-05T02:00:54.028Z,9.47
2023-05-05T02:01:26.877Z,9.46
2023-05-05T02:01:59.578Z,9.47
2023-05-05T02:02:32.359Z,9.46
2023-05-05T02:03:05.103Z,9.46
2023-05-05T02:03:37.813Z,9.46
2023-05-05T02:04:10.477Z,9.46
2023-05-05T02:04:43.141Z,9.43
2023-05-05T02:05:15.810Z,9.42
2023-05-05T02:05:48.508Z,9.43
2023-05-05T02:06:21.212Z,9.43
2023-05-05T02:06:53.889Z,9.42
2023-05-05T02:07:26.549Z,9.46
2023-05-05T02:07:59.221Z,9.40
2023-05-05T02:08:31.897Z,9.40
2023-05-05T02:09:04.572Z,9.40
2023-05-05T02:09:37.228Z,9.40
2023-05-05T02:10:10.023Z,9.42
2023-05-05T02:10:42.827Z,9.40
2023-05-05T02:11:15.479Z,9.40
2023-05-05T02:11:48.143Z,9.39
2023-05-05T02:12:19.244Z,9.39
2023-05-05T02:12:51.999Z,9.39
2023-05-05T02:13:24.670Z,9.38
2023-05-05T02:13:57.359Z,9.36
2023-05-05T02:14:30.040Z,9.36
2023-05-05T02:15:02.669Z,9.35
2023-05-05T02:15:35.359Z,9.33
2023-05-05T02:16:08.058Z,9.31
2023-05-05T02:16:40.712Z,9.33
2023-05-05T02:17:13.384Z,9.32
2023-05-05T02:17:46.075Z,9.31
2023-05-05T02:18:18.717Z,9.29
2023-05-05T02:18:51.377Z,9.31
2023-05-05T02:19:24.046Z,9.28
2023-05-05T02:19:56.744Z,9.29
2023-05-05T02:20:29.385Z,9.28
2023-05-05T02:21:02.056Z,9.28
2023-05-05T02:21:34.796Z,9.28
2023-05-05T02:22:07.478Z,9.26
2023-05-05T02:22:40.145Z,9.28
2023-05-05T02:23:12.809Z,9.26
2023-05-05T02:23:45.518Z,9.24
2023-05-05T02:24:18.181Z,9.24
2023-05-05T02:24:50.849Z,9.21
2023-05-05T02:25:23.537Z,9.23
2023-05-05T02:25:56.221Z,9.20
2023-05-05T02:26:28.917Z,9.20
2023-05-05T02:27:01.588Z,9.20
2023-05-05T02:27:34.273Z,9.18
2023-05-05T02:28:06.950Z,9.21
2023-05-05T02:28:39.625Z,9.21
2023-05-05T02:29:12.283Z,9.18
2023-05-05T02:29:44.978Z,9.18
2023-05-05T02:30:17.632Z,9.18
2023-05-05T02:30:50.313Z,9.17
2023-05-05T02:31:23.051Z,9.15
2023-05-05T02:31:55.705Z,9.17
2023-05-05T02:32:28.378Z,9.17
2023-05-05T02:33:01.118Z,9.17
2023-05-05T02:33:33.771Z,9.15
2023-05-05T02:34:06.436Z,9.17
2023-05-05T02:34:37.543Z,9.17
2023-05-05T02:35:10.200Z,9.13
2023-05-05T02:35:42.863Z,9.14
2023-05-05T02:36:15.537Z,9.14
2023-05-05T02:36:48.210Z,9.13
2023-05-05T02:37:20.904Z,9.13
2023-05-05T02:37:53.551Z,9.11
2023-05-05T02:38:26.218Z,9.11
2023-05-05T02:38:58.894Z,9.08
2023-05-05T02:39:31.562Z,9.08
2023-05-05T02:40:04.246Z,9.05
2023-05-05T02:40:36.931Z,9.05
2023-05-05T02:41:09.638Z,9.04
2023-05-05T02:41:42.321Z,9.02
2023-05-05T02:42:14.982Z,9.02
2023-05-05T02:42:47.677Z,9.04
2023-05-05T02:43:20.341Z,9.02
2023-05-05T02:43:53.080Z,9.04
2023-05-05T02:44:25.769Z,9.02
2023-05-05T02:44:58.463Z,9.02
2023-05-05T02:45:31.126Z,9.02
2023-05-05T02:46:03.842Z,9.02
2023-05-05T02:46:36.540Z,9.01
2023-05-05T02:47:09.184Z,9.01
2023-05-05T02:47:41.883Z,9.01
2023-05-05T02:48:14.542Z,8.98
2023-05-05T02:48:47.213Z,8.99
2023-05-05T02:49:19.885Z,8.98
2023-05-05T02:49:52.543Z,8.98
2023-05-05T02:50:25.204Z,8.95
2023-05-05T02:50:57.884Z,8.96
2023-05-05T02:51:30.562Z,8.95
2023-05-05T02:52:03.230Z,8.95
2023-05-05T02:52:35.925Z,8.95
2023-05-05T02:53:08.585Z,8.92
2023-05-05T02:53:41.253Z,8.92
2023-05-05T02:54:13.921Z,8.92
2023-05-05T02:54:46.589Z,8.89
2023-05-05T02:55:19.250Z,8.89
2023-05-05T02:55:51.925Z,8.89
2023-05-05T02:56:24.612Z,8.89
2023-05-05T02:56:57.280Z,8.86
2023-05-05T02:57:29.944Z,8.86
2023-05-05T02:58:02.628Z,8.86
2023-05-05T02:58:35.314Z,8.86
2023-05-05T02:59:07.954Z,8.86
2023-05-05T02:59:40.622Z,8.87
2023-05-05T03:00:13.333Z,8.87
2023-05-05T03:00:45.968Z,8.87
2023-05-05T03:01:18.696Z,8.87
2023-05-05T03:01:51.438Z,8.86
2023-05-05T03:02:24.216Z,8.89
2023-05-05T03:02:56.957Z,8.86
2023-05-05T03:03:29.790Z,8.86
2023-05-05T03:04:02.500Z,8.86
2023-05-05T03:04:35.182Z,8.84
2023-05-05T03:05:07.833Z,8.84
2023-05-05T03:05:40.516Z,8.84
2023-05-05T03:06:13.188Z,8.84
2023-05-05T03:06:45.850Z,8.83
2023-05-05T03:07:18.519Z,8.86
2023-05-05T03:07:51.212Z,8.86
2023-05-05T03:08:23.866Z,8.86
2023-05-05T03:08:56.540Z,8.87
2023-05-05T03:09:29.209Z,8.86
2023-05-05T03:10:01.857Z,8.86
2023-05-05T03:10:34.532Z,8.89
2023-05-05T03:11:07.198Z,8.91
2023-05-05T03:11:39.896Z,8.89
2023-05-05T03:12:12.557Z,8.92
2023-05-05T03:12:45.285Z,8.91
2023-05-05T03:13:17.952Z,8.91
2023-05-05T03:13:50.614Z,8.94
2023-05-05T03:14:23.280Z,8.91
2023-05-05T03:14:55.948Z,8.91
2023-05-05T03:15:28.622Z,8.89
2023-05-05T03:16:01.325Z,8.91
2023-05-05T03:16:34.009Z,8.89
2023-05-05T03:17:06.695Z,8.87
2023-05-05T03:17:39.470Z,8.89
2023-05-05T03:18:12.185Z,8.86
2023-05-05T03:18:44.849Z,8.89
2023-05-05T03:19:17.551Z,8.89
2023-05-05T03:19:50.191Z,8.87
2023-05-05T03:20:22.869Z,8.89
2023-05-05T03:20:55.556Z,8.87
2023-05-05T03:21:28.238Z,8.86
2023-05-05T03:22:00.910Z,8.89
2023-05-05T03:22:33.577Z,8.89
2023-05-05T03:23:06.246Z,8.87
2023-05-05T03:23:37.352Z,8.87
2023-05-05T03:24:10.010Z,8.86
2023-05-05T03:24:42.710Z,8.86
2023-05-05T03:25:15.353Z,8.84
2023-05-05T03:25:48.035Z,8.84
2023-05-05T03:26:20.758Z,8.84
2023-05-05T03:26:53.435Z,8.84
2023-05-05T03:27:26.085Z,8.84
2023-05-05T03:27:58.781Z,8.83
2023-05-05T03:28:31.435Z,8.80
2023-05-05T03:29:04.104Z,8.80
2023-05-05T03:29:36.790Z,8.83
2023-05-05T03:30:09.677Z,8.81
2023-05-05T03:30:36.007Z,8.81
2023-05-05T03:31:08.654Z,8.81
2023-05-05T03:31:41.372Z,8.83
2023-05-05T03:32:14.167Z,8.83
2023-05-05T03:32:46.878Z,8.81
2023-05-05T03:33:19.547Z,8.83
2023-05-05T03:33:52.251Z,8.81
2023-05-05T03:34:24.894Z,8.84
2023-05-05T03:34:57.581Z,8.83
2023-05-05T03:35:30.236Z,8.83
2023-05-05T03:36:02.922Z,8.81
2023-05-05T03:36:35.588Z,8.83
2023-05-05T03:37:08.265Z,8.81
2023-05-05T03:37:39.348Z,8.80
2023-05-05T03:38:10.462Z,8.81
2023-05-05T03:38:41.553Z,8.80
2023-05-05T03:39:14.239Z,8.80
2023-05-05T03:39:46.950Z,8.80
2023-05-05T03:40:19.693Z,8.79
2023-05-05T03:40:46.339Z,8.77
2023-05-05T03:41:19.048Z,8.77
2023-05-05T03:41:51.704Z,8.77
2023-05-05T03:42:24.379Z,8.77
2023-05-05T03:42:57.055Z,8.74
2023-05-05T03:43:29.743Z,8.74
2023-05-05T03:44:02.430Z,8.74
2023-05-05T03:44:35.074Z,8.76
2023-05-05T03:45:07.744Z,8.76
2023-05-05T03:45:40.534Z,8.73
2023-05-05T03:46:13.209Z,8.73
2023-05-05T03:46:45.900Z,8.70
2023-05-05T03:47:18.572Z,8.71
2023-05-05T03:47:51.254Z,8.70
2023-05-05T03:48:23.962Z,8.71
2023-05-05T03:48:56.639Z,8.71
2023-05-05T03:49:29.333Z,8.68
2023-05-05T03:50:01.989Z,8.68
2023-05-05T03:50:34.650Z,8.70
2023-05-05T03:51:07.327Z,8.70
2023-05-05T03:51:39.996Z,8.68
2023-05-05T03:52:14.963Z,8.68
2023-05-05T03:52:41.285Z,8.68
2023-05-05T03:53:13.958Z,8.68
2023-05-05T03:53:46.662Z,8.70
2023-05-05T03:54:19.305Z,8.70
2023-05-05T03:54:51.978Z,8.70
2023-05-05T03:55:24.669Z,8.66
2023-05-05T03:55:57.335Z,8.68
2023-05-05T03:56:30.020Z,8.66
2023-05-05T03:57:02.706Z,8.66
2023-05-05T03:57:35.379Z,8.66
2023-05-05T03:58:08.054Z,8.70
2023-05-05T03:58:40.744Z,8.68
2023-05-05T03:59:13.415Z,8.68
2023-05-05T03:59:46.083Z,8.68
2023-05-05T04:00:18.764Z,8.66
2023-05-05T04:00:51.453Z,8.66
2023-05-05T04:01:24.114Z,8.66
2023-05-05T04:01:56.892Z,8.65
2023-05-05T04:02:29.611Z,8.65
2023-05-05T04:03:02.392Z,8.66
2023-05-05T04:03:35.139Z,8.66
2023-05-05T04:04:07.838Z,8.65
2023-05-05T04:04:40.487Z,8.63
2023-05-05T04:05:13.213Z,8.65
2023-05-05T04:05:45.893Z,8.66
2023-05-05T04:06:18.566Z,8.63
2023-05-05T04:06:51.252Z,8.63
2023-05-05T04:07:23.913Z,8.62
2023-05-05T04:07:56.578Z,8.63
2023-05-05T04:08:29.252Z,8.62
2023-05-05T04:09:01.932Z,8.61
2023-05-05T04:09:34.589Z,8.61
2023-05-05T04:10:07.435Z,8.62
2023-05-05T04:10:33.790Z,8.62
2023-05-05T04:11:06.462Z,8.61
2023-05-05T04:11:39.126Z,8.61
2023-05-05T04:12:11.793Z,8.61
2023-05-05T04:12:44.480Z,8.62
2023-05-05T04:13:17.211Z,8.61
2023-05-05T04:13:49.871Z,8.61
2023-05-05T04:14:22.545Z,8.61
2023-05-05T04:14:55.221Z,8.61
2023-05-05T04:15:28.138Z,8.61
2023-05-05T04:16:00.875Z,8.61
2023-05-05T04:16:33.650Z,8.61
2023-05-05T04:17:06.311Z,8.59
2023-05-05T04:17:39.011Z,8.61
2023-05-05T04:18:11.663Z,8.62
2023-05-05T04:18:44.340Z,8.61
2023-05-05T04:19:17.028Z,8.61
2023-05-05T04:19:49.709Z,8.61
2023-05-05T04:20:22.394Z,8.61
2023-05-05T04:20:55.115Z,8.62
2023-05-05T04:21:27.797Z,8.61
2023-05-05T04:22:00.460Z,8.58
2023-05-05T04:22:33.115Z,8.61
2023-05-05T04:23:05.798Z,8.61
2023-05-05T04:23:38.462Z,8.58
2023-05-05T04:24:11.127Z,8.59
2023-05-05T04:24:43.793Z,8.61
2023-05-05T04:25:16.490Z,8.59
2023-05-05T04:25:49.133Z,8.61
2023-05-05T04:26:21.856Z,8.62
2023-05-05T04:26:54.522Z,8.59
2023-05-05T04:27:27.182Z,8.61
2023-05-05T04:27:59.873Z,8.59
2023-05-05T04:28:32.575Z,8.62
2023-05-05T04:29:05.222Z,8.61
2023-05-05T04:29:37.903Z,8.62
2023-05-05T04:30:10.588Z,8.62
2023-05-05T04:30:43.272Z,8.63
2023-05-05T04:31:16.012Z,8.63
2023-05-05T04:31:48.720Z,8.65
2023-05-05T04:32:21.423Z,8.63
2023-05-05T04:32:54.119Z,8.63
2023-05-05T04:33:26.763Z,8.68
2023-05-05T04:33:59.436Z,8.68
2023-05-05T04:34:32.130Z,8.65
2023-05-05T04:35:04.828Z,8.66
2023-05-05T04:35:37.508Z,8.70
2023-05-05T04:36:10.190Z,8.68
2023-05-05T04:36:42.887Z,8.71
2023-05-05T04:37:15.588Z,8.71
2023-05-05T04:37:48.252Z,8.70
2023-05-05T04:38:20.997Z,8.73
2023-05-05T04:38:53.732Z,8.73
2023-05-05T04:39:26.399Z,8.73
2023-05-05T04:39:59.088Z,8.76
2023-05-05T04:40:31.756Z,8.73
2023-05-05T04:41:04.436Z,8.76
2023-05-05T04:41:37.101Z,8.77
2023-05-05T04:42:09.784Z,8.77
2023-05-05T04:42:42.450Z,8.77
2023-05-05T04:43:15.111Z,8.79
2023-05-05T04:43:47.789Z,8.81
2023-05-05T04:44:20.459Z,8.83
2023-05-05T04:44:53.130Z,8.83
2023-05-05T04:45:25.804Z,8.83
2023-05-05T04:45:58.507Z,8.83
2023-05-05T04:46:31.272Z,8.84
2023-05-05T04:47:03.968Z,8.84
2023-05-05T04:47:36.731Z,8.86
2023-05-05T04:48:09.424Z,8.86
2023-05-05T04:48:42.174Z,8.89
2023-05-05T04:49:14.867Z,8.89
2023-05-05T04:49:47.535Z,8.89
2023-05-05T04:50:20.203Z,8.91
2023-05-05T04:50:52.868Z,8.94
2023-05-05T04:51:25.538Z,8.92
2023-05-05T04:51:58.202Z,8.94
2023-05-05T04:52:30.891Z,8.95
2023-05-05T04:53:03.583Z,8.96
2023-05-05T04:53:36.258Z,8.96
2023-05-05T04:54:08.949Z,8.98
2023-05-05T04:54:41.623Z,8.99
2023-05-05T04:55:14.278Z,8.99
2023-05-05T04:55:46.969Z,8.99
2023-05-05T04:56:19.620Z,9.01
2023-05-05T04:56:52.293Z,8.99
2023-05-05T04:57:24.969Z,9.01
2023-05-05T04:57:57.643Z,9.01
2023-05-05T04:58:30.308Z,9.02
2023-05-05T04:59:03.007Z,9.02
2023-05-05T04:59:35.662Z,9.02
2023-05-05T05:00:08.701Z,9.02
2023-05-05T05:00:35.041Z,9.02
2023-05-05T05:01:07.721Z,9.02
2023-05-05T05:01:40.464Z,9.05
2023-05-05T05:02:13.190Z,9.05
2023-05-05T05:02:45.959Z,9.08
2023-05-05T05:03:18.762Z,9.10
2023-05-05T05:03:51.469Z,9.08
2023-05-05T05:04:24.144Z,9.11
2023-05-05T05:04:55.219Z,9.13
2023-05-05T05:05:27.887Z,9.13
2023-05-05T05:06:00.562Z,9.13
2023-05-05T05:06:33.234Z,9.13
2023-05-05T05:07:05.901Z,9.14
2023-05-05T05:07:38.576Z,9.14
2023-05-05T05:08:11.241Z,9.15
2023-05-05T05:08:43.913Z,9.15
2023-05-05T05:09:16.602Z,9.15
2023-05-05T05:09:49.283Z,9.17
2023-05-05T05:10:21.947Z,9.14
2023-05-05T05:10:54.622Z,9.15
2023-05-05T05:11:27.306Z,9.17
2023-05-05T05:11:59.963Z,9.17
2023-05-05T05:12:32.696Z,9.17
2023-05-05T05:13:05.430Z,9.17
2023-05-05T05:13:38.086Z,9.18
2023-05-05T05:14:10.773Z,9.20
2023-05-05T05:14:43.425Z,9.21
2023-05-05T05:15:16.091Z,9.20
2023-05-05T05:15:48.768Z,9.23
2023-05-05T05:16:21.465Z,9.23
2023-05-05T05:16:54.339Z,9.23
2023-05-05T05:17:20.634Z,9.24
2023-05-05T05:17:53.355Z,9.24
2023-05-05T05:18:26.015Z,9.26
2023-05-05T05:19:00.250Z,9.28
2023-05-05T05:19:29.808Z,9.29
2023-05-05T05:20:02.497Z,9.32
2023-05-05T05:20:35.164Z,9.32
2023-05-05T05:21:07.858Z,9.33
2023-05-05T05:21:40.503Z,9.35
2023-05-05T05:22:13.183Z,9.36
2023-05-05T05:22:45.873Z,9.38
2023-05-05T05:23:18.559Z,9.39
2023-05-05T05:23:51.216Z,9.40
2023-05-05T05:24:24.013Z,9.42
2023-05-05T05:24:56.671Z,9.43
2023-05-05T05:25:29.340Z,9.47
2023-05-05T05:26:02.001Z,9.50
2023-05-05T05:26:33.095Z,9.51
2023-05-05T05:27:06.803Z,9.56
2023-05-05T05:27:34.719Z,9.56
2023-05-05T05:28:10.685Z,9.58
2023-05-05T05:28:37.269Z,9.60
2023-05-05T05:29:09.950Z,9.64
2023-05-05T05:29:42.617Z,9.65
2023-05-05T05:30:15.286Z,9.68
2023-05-05T05:30:47.971Z,9.68
2023-05-05T05:31:20.673Z,9.71
2023-05-05T05:31:53.366Z,9.72
2023-05-05T05:32:26.070Z,9.72
2023-05-05T05:32:58.762Z,9.75
2023-05-05T05:33:31.400Z,9.79
2023-05-05T05:34:04.094Z,9.81
2023-05-05T05:34:36.768Z,9.83
2023-05-05T05:35:09.458Z,9.86
2023-05-05T05:35:42.118Z,9.86
2023-05-05T05:36:14.802Z,9.90
2023-05-05T05:36:47.456Z,9.91
2023-05-05T05:37:20.151Z,9.94
2023-05-05T05:37:52.816Z,9.97
2023-05-05T05:38:25.497Z,10.01
2023-05-05T05:38:58.147Z,10.04
2023-05-05T05:39:30.818Z,10.09
2023-05-05T05:40:03.487Z,10.12
2023-05-05T05:40:36.141Z,10.14
2023-05-05T05:41:08.823Z,10.17
2023-05-05T05:41:41.517Z,10.18
2023-05-05T05:42:14.242Z,10.22
2023-05-05T05:42:46.917Z,10.23
2023-05-05T05:43:19.568Z,10.26
2023-05-05T05:43:52.238Z,10.29
2023-05-05T05:44:25.076Z,10.32
2023-05-05T05:44:57.730Z,10.34
2023-05-05T05:45:30.387Z,10.38
2023-05-05T05:46:03.069Z,10.42
2023-05-05T05:46:35.846Z,10.48
2023-05-05T05:47:08.629Z,10.51
2023-05-05T05:47:41.384Z,10.55
2023-05-05T05:48:14.049Z,10.59
2023-05-05T05:48:46.727Z,10.63
2023-05-05T05:49:19.401Z,10.64
2023-05-05T05:49:52.070Z,10.68
2023-05-05T05:50:24.744Z,10.71
2023-05-05T05:50:57.414Z,10.76
2023-05-05T05:51:30.107Z,10.81
2023-05-05T05:52:02.764Z,10.84
2023-05-05T05:52:35.460Z,10.88
2023-05-05T05:53:08.159Z,10.89
2023-05-05T05:53:40.797Z,10.89
2023-05-05T05:54:13.476Z,10.91
2023-05-05T05:54:46.149Z,10.92
2023-05-05T05:55:18.816Z,10.94
2023-05-05T05:55:51.476Z,10.96
2023-05-05T05:56:24.146Z,10.97
2023-05-05T05:56:56.815Z,10.97
2023-05-05T05:57:29.501Z,10.99
2023-05-05T05:58:02.164Z,11.00
2023-05-05T05:58:34.833Z,11.02
2023-05-05T05:59:07.494Z,11.00
2023-05-05T05:59:40.164Z,11.00
2023-05-05T06:00:12.830Z,11.02
2023-05-05T06:00:45.505Z,10.99
2023-05-05T06:01:18.169Z,10.99
2023-05-05T06:01:50.830Z,10.97
2023-05-05T06:02:23.543Z,10.99
2023-05-05T06:02:56.346Z,10.99
2023-05-05T06:03:29.114Z,10.97
2023-05-05T06:04:01.898Z,10.99
2023-05-05T06:04:34.659Z,10.97
2023-05-05T06:05:07.372Z,10.99
2023-05-05T06:05:40.030Z,11.00
2023-05-05T06:06:12.685Z,11.00
2023-05-05T06:06:43.793Z,11.04
2023-05-05T06:07:16.460Z,11.03
2023-05-05T06:07:49.148Z,11.03
2023-05-05T06:08:24.262Z,11.07
2023-05-05T06:08:51.131Z,11.09
2023-05-05T06:09:23.800Z,11.09
2023-05-05T06:09:56.475Z,11.11
2023-05-05T06:10:29.349Z,11.11
2023-05-05T06:10:55.703Z,11.15
2023-05-05T06:11:28.377Z,11.18
2023-05-05T06:12:01.058Z,11.21
2023-05-05T06:12:33.771Z,11.21
2023-05-05T06:13:06.472Z,11.25
2023-05-05T06:13:39.131Z,11.28
2023-05-05T06:14:11.805Z,11.32
2023-05-05T06:14:44.482Z,11.37
2023-05-05T06:15:17.184Z,11.40
2023-05-05T06:15:49.877Z,11.43
2023-05-05T06:16:22.694Z,11.47
2023-05-05T06:16:55.346Z,11.52
2023-05-05T06:17:28.025Z,11.54
2023-05-05T06:18:00.750Z,11.57
2023-05-05T06:18:33.424Z,11.62
2023-05-05T06:19:06.091Z,11.64
2023-05-05T06:19:38.749Z,11.65
2023-05-05T06:20:10.009Z,11.65
2023-05-05T06:20:42.705Z,11.69
2023-05-05T06:21:15.353Z,11.70
2023-05-05T06:21:48.023Z,11.75
2023-05-05T06:22:20.702Z,11.73
2023-05-05T06:22:53.365Z,11.75
2023-05-05T06:23:26.060Z,11.78
2023-05-05T06:23:58.742Z,11.80
2023-05-05T06:24:31.416Z,11.82
2023-05-05T06:25:04.113Z,11.83
2023-05-05T06:25:36.780Z,11.85
2023-05-05T06:26:09.466Z,11.88
2023-05-05T06:26:42.162Z,11.88
2023-05-05T06:27:14.827Z,11.90
2023-05-05T06:27:47.493Z,11.90
2023-05-05T06:28:20.171Z,11.94
2023-05-05T06:28:52.847Z,11.95
2023-05-05T06:29:25.516Z,11.99
2023-05-05T06:29:58.192Z,12.01
2023-05-05T06:30:30.874Z,12.01
2023-05-05T06:31:03.547Z,11.99
2023-05-05T06:31:36.238Z,12.04
2023-05-05T06:32:08.925Z,12.05
2023-05-05T06:32:41.631Z,11.96
2023-05-05T06:33:14.307Z,11.91
2023-05-05T06:33:46.948Z,11.86
2023-05-05T06:34:19.629Z,11.88
2023-05-05T06:34:52.276Z,11.88
2023-05-05T06:35:24.955Z,11.94
2023-05-05T06:35:57.608Z,11.96
2023-05-05T06:36:30.287Z,12.05
2023-05-05T06:37:02.948Z,12.13
2023-05-05T06:37:35.633Z,12.20
2023-05-05T06:38:08.296Z,12.24
2023-05-05T06:38:40.966Z,12.35
2023-05-05T06:39:15.928Z,12.41
2023-05-05T06:39:44.730Z,12.49
2023-05-05T06:40:17.396Z,12.52
2023-05-05T06:40:50.069Z,12.57
2023-05-05T06:41:22.728Z,12.64
2023-05-05T06:41:55.396Z,12.67
2023-05-05T06:42:28.084Z,12.68
2023-05-05T06:43:00.772Z,12.77
2023-05-05T06:43:33.439Z,12.83
2023-05-05T06:44:06.106Z,12.96
2023-05-05T06:44:38.771Z,13.04
2023-05-05T06:45:11.427Z,13.12
2023-05-05T06:45:44.111Z,13.20
2023-05-05T06:46:16.839Z,13.19
2023-05-05T06:46:47.901Z,13.11
2023-05-05T06:47:20.580Z,12.97
2023-05-05T06:47:53.297Z,12.90
2023-05-05T06:48:26.057Z,12.86
2023-05-05T06:48:58.679Z,12.70
2023-05-05T06:49:31.363Z,12.67
2023-05-05T06:50:04.069Z,12.64
2023-05-05T06:50:36.711Z,12.62
2023-05-05T06:51:09.395Z,12.64
2023-05-05T06:51:42.842Z,12.64
2023-05-05T06:52:09.216Z,12.65
2023-05-05T06:52:41.884Z,12.65
2023-05-05T06:53:14.559Z,12.70
2023-05-05T06:53:47.231Z,12.72
2023-05-05T06:54:19.892Z,12.77
2023-05-05T06:54:52.556Z,12.82
2023-05-05T06:55:25.213Z,12.92
2023-05-05T06:55:57.879Z,13.03
2023-05-05T06:56:30.544Z,13.12
2023-05-05T06:57:03.225Z,13.22
2023-05-05T06:57:35.902Z,13.25
2023-05-05T06:58:08.576Z,13.33
2023-05-05T06:58:41.244Z,13.42
2023-05-05T06:59:13.934Z,13.48
2023-05-05T06:59:46.570Z,13.54
2023-05-05T07:00:19.267Z,13.59
2023-05-05T07:00:51.993Z,13.63
2023-05-05T07:01:24.755Z,13.69
2023-05-05T07:01:57.414Z,13.75
2023-05-05T07:02:30.144Z,13.81
2023-05-05T07:03:02.821Z,13.79
2023-05-05T07:03:34.144Z,13.64
2023-05-05T07:04:07.187Z,13.57
2023-05-05T07:04:33.501Z,13.63
2023-05-05T07:05:06.155Z,13.63
2023-05-05T07:05:38.821Z,13.51
2023-05-05T07:06:11.502Z,13.29
2023-05-05T07:06:44.174Z,13.33
2023-05-05T07:07:16.853Z,13.41
2023-05-05T07:07:49.542Z,13.51
2023-05-05T07:08:22.213Z,13.52
2023-05-05T07:08:54.895Z,13.55
2023-05-05T07:09:27.576Z,13.59